Time;durP1;ratioP1;P1;durP2;ratioP2;P2;SDS_P1;SDS_P2;PMS_P1;PMS_P2;Temp;Humidity;BMP_temperature;BMP_pressure;BME280_temperature;BME280_humidity;BME280_pressure;Samples;Min_cycle;Max_cycle;Signal;HPM_P1;HPM_P2
2024/02/10 00:01:57;;;;;;;27.60;25.90;;;;;;;;;;5077281;28;20449;-78
2024/02/10 00:04:24;;;;;;;28.00;26.10;;;;;;;;;;5077713;28;20481;-79
2024/02/10 00:06:54;;;;;;;28.43;26.00;;;;;;;;;;5077046;28;20420;-78
2024/02/10 00:09:21;;;;;;;28.50;26.53;;;;;;;;;;5076415;28;20579;-79
2024/02/10 00:11:47;;;;;;;28.23;26.07;;;;;;;;;;5077070;28;20847;-77
2024/02/10 00:14:16;;;;;;;27.30;25.47;;;;;;;;;;5077779;28;20442;-78
2024/02/10 00:16:44;;;;;;;28.77;26.90;;;;;;;;;;5076335;28;20457;-79
2024/02/10 00:19:13;;;;;;;28.30;25.93;;;;;;;;;;5077268;28;20482;-78
2024/02/10 00:21:41;;;;;;;28.00;26.30;;;;;;;;;;5077122;28;20515;-79
2024/02/10 00:24:08;;;;;;;28.43;26.53;;;;;;;;;;5077056;28;20532;-78
2024/02/10 00:26:37;;;;;;;28.77;26.50;;;;;;;;;;5080596;28;20513;-78
2024/02/10 00:29:04;;;;;;;28.73;26.37;;;;;;;;;;5080923;28;20466;-78
2024/02/10 00:31:32;;;;;;;30.97;28.57;;;;;;;;;;5081808;28;20515;-79
2024/02/10 00:34:00;;;;;;;32.03;29.33;;;;;;;;;;5081638;28;20454;-78
2024/02/10 00:36:28;;;;;;;31.23;28.93;;;;;;;;;;5080442;28;20461;-78
2024/02/10 00:38:55;;;;;;;30.40;28.00;;;;;;;;;;5089973;28;20472;-78
2024/02/10 00:41:22;;;;;;;33.53;30.87;;;;;;;;;;5102148;28;20444;-79
2024/02/10 00:43:50;;;;;;;33.57;31.07;;;;;;;;;;5082211;28;21079;-80
2024/02/10 00:46:17;;;;;;;33.73;31.03;;;;;;;;;;5080457;28;20462;-79
2024/02/10 00:48:47;;;;;;;35.27;32.63;;;;;;;;;;5081477;28;20500;-80
2024/02/10 00:51:14;;;;;;;33.70;30.80;;;;;;;;;;5081945;28;20453;-79
2024/02/10 00:53:42;;;;;;;34.57;31.87;;;;;;;;;;5081645;28;20450;-78
2024/02/10 00:56:09;;;;;;;35.33;31.87;;;;;;;;;;5080752;28;20464;-80
2024/02/10 00:58:40;;;;;;;35.73;32.67;;;;;;;;;;5087943;28;20711;-79
2024/02/10 01:01:09;;;;;;;34.73;32.17;;;;;;;;;;5095356;28;20458;-78
2024/02/10 01:03:43;;;;;;;34.17;31.77;;;;;;;;;;5078501;28;20522;-78
2024/02/10 01:06:11;;;;;;;36.63;32.87;;;;;;;;;;5076047;28;20528;-79
2024/02/10 01:08:40;;;;;;;35.17;32.43;;;;;;;;;;5078044;28;20474;-78
2024/02/10 01:11:11;;;;;;;35.00;32.50;;;;;;;;;;5078150;28;20480;-78
2024/02/10 01:13:42;;;;;;;36.53;33.70;;;;;;;;;;5078266;28;20424;-79
2024/02/10 01:16:09;;;;;;;37.40;34.50;;;;;;;;;;5077766;28;20446;-78
2024/02/10 01:18:37;;;;;;;37.73;34.50;;;;;;;;;;5076996;28;21127;-78
2024/02/10 01:21:05;;;;;;;34.43;32.00;;;;;;;;;;5079600;28;20451;-80
2024/02/10 01:23:32;;;;;;;37.90;34.70;;;;;;;;;;5080169;28;20476;-79
2024/02/10 01:25:59;;;;;;;37.43;34.27;;;;;;;;;;5077479;28;20572;-79
2024/02/10 01:28:27;;;;;;;36.63;33.67;;;;;;;;;;5076948;28;20466;-78
2024/02/10 01:30:54;;;;;;;37.23;34.10;;;;;;;;;;5077252;28;20450;-79
2024/02/10 01:33:21;;;;;;;37.20;34.10;;;;;;;;;;5077043;28;20471;-78
2024/02/10 01:35:48;;;;;;;35.73;33.10;;;;;;;;;;5078034;28;20442;-79
2024/02/10 01:38:15;;;;;;;37.57;34.47;;;;;;;;;;5091662;28;20473;-78
2024/02/10 01:40:42;;;;;;;37.60;34.33;;;;;;;;;;5097650;28;20449;-78
2024/02/10 01:43:09;;;;;;;35.10;32.20;;;;;;;;;;5097206;28;20456;-78
2024/02/10 01:45:38;;;;;;;36.00;32.70;;;;;;;;;;5097159;28;20889;-78
2024/02/10 01:48:08;;;;;;;35.40;32.70;;;;;;;;;;5096675;28;20469;-79
2024/02/10 01:50:35;;;;;;;34.67;31.97;;;;;;;;;;5097204;28;20887;-78
2024/02/10 01:53:02;;;;;;;45.03;34.77;;;;;;;;;;5096610;28;20502;-79
2024/02/10 01:55:29;;;;;;;34.80;32.20;;;;;;;;;;5096966;28;20494;-77
2024/02/10 01:57:59;;;;;;;38.33;35.10;;;;;;;;;;5112772;28;20486;-78
2024/02/10 02:00:26;;;;;;;37.03;34.37;;;;;;;;;;5117566;28;20454;-79
2024/02/10 02:02:59;;;;;;;36.63;33.70;;;;;;;;;;5101698;28;20454;-79
2024/02/10 02:05:26;;;;;;;35.77;32.73;;;;;;;;;;5076359;28;20476;-79
2024/02/10 02:07:53;;;;;;;34.93;32.13;;;;;;;;;;5076013;28;20474;-79
2024/02/10 02:10:21;;;;;;;35.17;32.13;;;;;;;;;;5076372;28;20442;-77
2024/02/10 02:12:48;;;;;;;35.83;33.23;;;;;;;;;;5075968;28;21193;-79
2024/02/10 02:15:16;;;;;;;36.87;33.37;;;;;;;;;;5076340;28;20481;-78
2024/02/10 02:17:43;;;;;;;35.93;32.87;;;;;;;;;;5076060;28;20452;-79
2024/02/10 02:20:12;;;;;;;36.50;33.20;;;;;;;;;;5080291;28;20495;-79
2024/02/10 02:22:44;;;;;;;35.83;32.57;;;;;;;;;;5080964;28;20562;-78
2024/02/10 02:25:14;;;;;;;34.73;32.00;;;;;;;;;;5079698;28;20522;-78
2024/02/10 02:27:41;;;;;;;41.83;38.27;;;;;;;;;;5077520;28;20473;-78
2024/02/10 02:30:09;;;;;;;39.60;35.90;;;;;;;;;;5080688;28;20503;-78
2024/02/10 02:32:36;;;;;;;44.37;37.50;;;;;;;;;;5080344;28;20491;-78
2024/02/10 02:35:09;;;;;;;37.40;34.50;;;;;;;;;;5080793;28;20493;-78
2024/02/10 02:37:37;;;;;;;39.90;36.20;;;;;;;;;;5087991;28;20475;-78
2024/02/10 02:40:06;;;;;;;35.43;32.47;;;;;;;;;;5090968;28;20457;-80
2024/02/10 02:42:33;;;;;;;38.70;35.63;;;;;;;;;;5080318;28;21251;-78
2024/02/10 02:45:03;;;;;;;39.20;35.10;;;;;;;;;;5080980;28;20481;-78
2024/02/10 02:47:32;;;;;;;38.10;34.77;;;;;;;;;;5084125;28;21022;-78
2024/02/10 02:49:59;;;;;;;37.70;34.70;;;;;;;;;;5081408;28;20456;-79
2024/02/10 02:52:27;;;;;;;38.20;35.00;;;;;;;;;;5081724;28;20470;-78
2024/02/10 02:54:54;;;;;;;40.70;36.97;;;;;;;;;;5081073;28;20452;-80
2024/02/10 02:57:24;;;;;;;39.50;36.00;;;;;;;;;;5080974;28;20461;-79
2024/02/10 02:59:52;;;;;;;42.03;38.30;;;;;;;;;;5081269;28;20453;-77
2024/02/10 03:02:19;;;;;;;39.13;35.40;;;;;;;;;;5080673;28;20420;-79
2024/02/10 03:04:46;;;;;;;40.73;37.57;;;;;;;;;;5080682;28;20980;-78
2024/02/10 03:07:14;;;;;;;42.13;36.20;;;;;;;;;;5079939;28;20449;-78
2024/02/10 03:09:44;;;;;;;40.13;36.43;;;;;;;;;;5081425;28;20416;-78
2024/02/10 03:12:11;;;;;;;37.50;34.40;;;;;;;;;;5094772;28;20532;-78
2024/02/10 03:14:40;;;;;;;38.83;35.60;;;;;;;;;;5100754;28;20465;-78
2024/02/10 03:17:10;;;;;;;38.30;34.83;;;;;;;;;;5090888;28;20481;-79
2024/02/10 03:19:37;;;;;;;39.37;36.07;;;;;;;;;;5080816;28;20476;-79
2024/02/10 03:22:05;;;;;;;36.87;34.00;;;;;;;;;;5080674;28;20469;-78
2024/02/10 03:24:32;;;;;;;44.23;39.73;;;;;;;;;;5079782;28;20428;-79
2024/02/10 03:27:00;;;;;;;37.97;34.87;;;;;;;;;;5079519;28;20454;-78
2024/02/10 03:29:28;;;;;;;38.87;35.57;;;;;;;;;;5092680;28;20432;-78
2024/02/10 03:31:56;;;;;;;62.87;39.73;;;;;;;;;;5099765;28;20453;-79
2024/02/10 03:34:23;;;;;;;40.60;37.10;;;;;;;;;;5096057;28;20491;-78
2024/02/10 03:36:50;;;;;;;38.73;35.50;;;;;;;;;;5079867;28;20445;-79
2024/02/10 03:39:17;;;;;;;42.80;38.30;;;;;;;;;;5081197;28;20465;-79
2024/02/10 03:41:44;;;;;;;40.40;36.60;;;;;;;;;;5081502;28;20967;-79
2024/02/10 03:44:11;;;;;;;41.20;37.90;;;;;;;;;;5082151;28;20442;-80
2024/02/10 03:46:39;;;;;;;43.10;38.77;;;;;;;;;;5080725;28;21036;-79
2024/02/10 03:49:07;;;;;;;40.80;37.23;;;;;;;;;;5082268;28;20973;-79
2024/02/10 03:51:34;;;;;;;41.60;38.00;;;;;;;;;;5091605;28;20491;-79
2024/02/10 03:54:01;;;;;;;42.23;38.33;;;;;;;;;;5103060;28;20449;-79
2024/02/10 03:56:28;;;;;;;40.53;37.23;;;;;;;;;;5101006;28;20466;-79
2024/02/10 03:58:55;;;;;;;42.87;38.27;;;;;;;;;;5101374;28;20476;-79
2024/02/10 04:01:22;;;;;;;42.60;38.90;;;;;;;;;;5093161;28;20518;-79
2024/02/10 04:03:49;;;;;;;41.40;37.77;;;;;;;;;;5081384;28;20499;-79
2024/02/10 04:06:18;;;;;;;40.03;36.53;;;;;;;;;;5091800;28;21003;-79
2024/02/10 04:08:46;;;;;;;42.33;38.80;;;;;;;;;;5101107;28;20477;-79
2024/02/10 04:11:13;;;;;;;39.53;36.00;;;;;;;;;;5101060;28;20434;-78
2024/02/10 04:13:41;;;;;;;42.43;38.60;;;;;;;;;;5101033;28;20518;-79
2024/02/10 04:16:10;;;;;;;41.60;37.50;;;;;;;;;;5100010;28;20441;-79
2024/02/10 04:18:37;;;;;;;40.67;37.17;;;;;;;;;;5080322;28;20528;-79
2024/02/10 04:21:05;;;;;;;41.80;38.30;;;;;;;;;;5081274;28;20438;-78
2024/02/10 04:23:33;;;;;;;39.83;36.93;;;;;;;;;;5081600;28;20524;-80
2024/02/10 04:26:01;;;;;;;36.23;33.63;;;;;;;;;;5080558;28;20781;-79
2024/02/10 04:28:28;;;;;;;36.53;33.77;;;;;;;;;;5080912;28;20469;-78
2024/02/10 04:30:55;;;;;;;38.23;35.10;;;;;;;;;;5080833;28;20503;-79
2024/02/10 04:33:22;;;;;;;36.67;33.77;;;;;;;;;;5079964;28;20461;-79
2024/02/10 04:35:49;;;;;;;35.97;33.57;;;;;;;;;;5079907;28;20454;-78
2024/02/10 04:38:17;;;;;;;38.17;34.80;;;;;;;;;;5079638;28;20473;-78
2024/02/10 04:40:46;;;;;;;37.07;33.97;;;;;;;;;;5079926;28;20454;-79
2024/02/10 04:43:13;;;;;;;37.00;33.70;;;;;;;;;;5078844;28;20532;-79
2024/02/10 04:45:45;;;;;;;36.20;33.40;;;;;;;;;;5080140;28;20588;-80
2024/02/10 04:48:13;;;;;;;38.83;35.77;;;;;;;;;;5079117;28;20556;-80
2024/02/10 04:50:41;;;;;;;33.70;31.07;;;;;;;;;;5079232;28;20453;-79
2024/02/10 04:53:08;;;;;;;35.57;32.77;;;;;;;;;;5079690;28;20959;-78
2024/02/10 04:55:35;;;;;;;35.50;32.80;;;;;;;;;;5080041;28;21002;-79
2024/02/10 04:58:04;;;;;;;35.40;32.17;;;;;;;;;;5079170;28;20796;-79
2024/02/10 05:00:32;;;;;;;35.80;32.80;;;;;;;;;;5079932;28;20480;-78
2024/02/10 05:03:02;;;;;;;35.77;32.77;;;;;;;;;;5079954;28;20456;-79
2024/02/10 05:05:29;;;;;;;36.97;34.17;;;;;;;;;;5080148;28;20561;-79
2024/02/10 05:07:57;;;;;;;38.10;34.47;;;;;;;;;;5079149;28;20462;-79
2024/02/10 05:10:24;;;;;;;37.07;34.00;;;;;;;;;;5079358;28;20463;-78
2024/02/10 05:12:52;;;;;;;37.80;34.97;;;;;;;;;;5081512;28;20556;-79
2024/02/10 05:15:22;;;;;;;38.83;35.67;;;;;;;;;;5079525;28;20918;-78
2024/02/10 05:17:50;;;;;;;40.13;36.50;;;;;;;;;;5078929;28;20489;-78
2024/02/10 05:20:19;;;;;;;37.27;34.67;;;;;;;;;;5079155;28;20438;-79
2024/02/10 05:22:47;;;;;;;39.47;35.97;;;;;;;;;;5078733;28;20476;-78
2024/02/10 05:25:14;;;;;;;36.73;33.70;;;;;;;;;;5079339;28;20541;-79
2024/02/10 05:27:44;;;;;;;39.50;36.50;;;;;;;;;;5077067;28;20536;-79
2024/02/10 05:30:14;;;;;;;37.03;34.20;;;;;;;;;;5078019;28;20540;-79
2024/02/10 05:32:45;;;;;;;36.20;33.80;;;;;;;;;;5078570;28;20453;-79
2024/02/10 05:35:18;;;;;;;36.40;33.87;;;;;;;;;;5077340;28;20441;-78
2024/02/10 05:37:45;;;;;;;36.63;33.93;;;;;;;;;;5077896;28;21070;-79
2024/02/10 05:40:13;;;;;;;39.53;36.70;;;;;;;;;;5110124;28;20516;-80
2024/02/10 05:42:40;;;;;;;37.87;35.37;;;;;;;;;;5084185;28;20998;-78
2024/02/10 05:45:08;;;;;;;36.60;34.03;;;;;;;;;;5093876;28;20453;-78
2024/02/10 05:47:35;;;;;;;35.83;33.50;;;;;;;;;;5099876;28;21000;-78
2024/02/10 05:50:08;;;;;;;35.70;33.17;;;;;;;;;;5093411;28;20449;-78
2024/02/10 05:52:38;;;;;;;34.17;32.07;;;;;;;;;;5091015;28;20501;-78
2024/02/10 05:55:06;;;;;;;34.30;32.10;;;;;;;;;;5081104;28;20432;-80
2024/02/10 05:57:33;;;;;;;34.87;32.63;;;;;;;;;;5074457;28;20535;-80
2024/02/10 06:00:00;;;;;;;34.70;32.40;;;;;;;;;;5075084;28;20420;-79
2024/02/10 06:02:29;;;;;;;37.47;34.97;;;;;;;;;;5075433;28;20441;-78
2024/02/10 06:04:56;;;;;;;36.10;33.73;;;;;;;;;;5075024;28;20480;-78
2024/02/10 06:07:26;;;;;;;37.03;33.40;;;;;;;;;;5085852;28;20501;-79
2024/02/10 06:09:53;;;;;;;35.60;33.20;;;;;;;;;;5095699;28;20441;-79
2024/02/10 06:12:20;;;;;;;35.73;33.13;;;;;;;;;;5094813;28;21246;-78
2024/02/10 06:14:47;;;;;;;37.33;34.53;;;;;;;;;;5084639;28;21009;-79
2024/02/10 06:17:14;;;;;;;36.10;33.80;;;;;;;;;;5096679;28;20859;-79
2024/02/10 06:19:41;;;;;;;38.23;34.53;;;;;;;;;;5096850;28;20519;-79
2024/02/10 06:22:09;;;;;;;37.73;34.73;;;;;;;;;;5097740;28;20444;-79
2024/02/10 06:24:40;;;;;;;36.80;34.30;;;;;;;;;;5095904;28;20948;-80
2024/02/10 06:27:07;;;;;;;36.07;33.53;;;;;;;;;;5095691;28;20495;-79
2024/02/10 06:29:34;;;;;;;35.73;33.43;;;;;;;;;;5095426;28;20441;-79
2024/02/10 06:32:05;;;;;;;36.03;33.83;;;;;;;;;;5090952;28;20461;-78
2024/02/10 06:34:34;;;;;;;36.60;34.00;;;;;;;;;;5096665;28;20516;-78
2024/02/10 06:37:02;;;;;;;37.47;35.30;;;;;;;;;;5096192;28;20996;-78
2024/02/10 06:39:29;;;;;;;35.83;33.73;;;;;;;;;;5096352;28;20447;-79
2024/02/10 06:41:59;;;;;;;37.57;35.17;;;;;;;;;;5084478;28;20548;-78
2024/02/10 06:44:26;;;;;;;36.03;33.73;;;;;;;;;;5077243;28;20446;-79
2024/02/10 06:46:53;;;;;;;36.93;34.40;;;;;;;;;;5078798;28;20489;-80
2024/02/10 06:49:20;;;;;;;36.67;34.17;;;;;;;;;;5082124;28;20469;-80
2024/02/10 06:51:47;;;;;;;40.13;36.27;;;;;;;;;;5091406;28;20544;-79
2024/02/10 06:54:14;;;;;;;35.97;34.07;;;;;;;;;;5078068;28;20454;-79
2024/02/10 06:56:44;;;;;;;36.90;34.57;;;;;;;;;;5074861;28;20458;-79
2024/02/10 06:59:15;;;;;;;37.57;35.30;;;;;;;;;;5070652;28;20573;-77
2024/02/10 07:01:42;;;;;;;35.60;33.10;;;;;;;;;;5084708;28;20539;-78
2024/02/10 07:04:09;;;;;;;51.57;35.67;;;;;;;;;;5090190;28;20419;-77
2024/02/10 07:06:36;;;;;;;36.73;33.47;;;;;;;;;;5093053;28;20550;-77
2024/02/10 07:09:03;;;;;;;37.37;35.13;;;;;;;;;;5095986;28;20443;-78
2024/02/10 07:11:30;;;;;;;34.83;32.57;;;;;;;;;;5088266;28;20459;-78
2024/02/10 07:13:57;;;;;;;36.20;33.97;;;;;;;;;;5091174;28;20464;-78
2024/02/10 07:16:25;;;;;;;35.37;32.93;;;;;;;;;;5093877;28;20532;-77
2024/02/10 07:18:53;;;;;;;33.33;31.63;;;;;;;;;;5094247;28;20476;-77
2024/02/10 07:21:20;;;;;;;33.83;31.90;;;;;;;;;;5095375;28;20424;-77
2024/02/10 07:23:47;;;;;;;32.67;30.77;;;;;;;;;;5094975;28;20441;-77
2024/02/10 07:26:14;;;;;;;32.77;30.77;;;;;;;;;;5093574;28;20496;-78
2024/02/10 07:28:41;;;;;;;34.50;32.60;;;;;;;;;;5093667;28;20522;-77
2024/02/10 07:31:07;;;;;;;33.13;30.83;;;;;;;;;;5095036;28;20431;-79
2024/02/10 07:33:36;;;;;;;31.40;29.57;;;;;;;;;;5085597;28;20458;-78
2024/02/10 07:36:03;;;;;;;32.00;30.20;;;;;;;;;;5078883;28;20479;-78
2024/02/10 07:38:30;;;;;;;32.20;30.40;;;;;;;;;;5096880;28;20830;-79
2024/02/10 07:40:57;;;;;;;32.97;30.90;;;;;;;;;;5099279;28;20527;-80
2024/02/10 07:43:27;;;;;;;31.10;29.30;;;;;;;;;;5095811;28;20448;-79
2024/02/10 07:45:55;;;;;;;32.57;30.87;;;;;;;;;;5098496;28;20435;-79
2024/02/10 07:48:22;;;;;;;32.30;30.30;;;;;;;;;;5099270;28;20480;-79
2024/02/10 07:50:54;;;;;;;31.80;29.90;;;;;;;;;;5100790;28;20460;-78
2024/02/10 07:53:21;;;;;;;33.37;31.47;;;;;;;;;;5100904;28;20438;-78
2024/02/10 07:55:48;;;;;;;34.20;32.07;;;;;;;;;;5101493;28;20514;-81
2024/02/10 07:58:15;;;;;;;34.33;32.10;;;;;;;;;;5099885;28;20473;-79
2024/02/10 08:00:42;;;;;;;33.20;31.20;;;;;;;;;;5096668;28;20544;-82
2024/02/10 08:03:11;;;;;;;32.57;30.40;;;;;;;;;;5100837;28;20895;-83
2024/02/10 08:05:39;;;;;;;34.50;32.37;;;;;;;;;;5099675;28;20456;-82
2024/02/10 08:08:09;;;;;;;34.13;32.00;;;;;;;;;;5098582;28;20866;-83
2024/02/10 08:10:37;;;;;;;33.73;31.43;;;;;;;;;;5090188;28;20879;-81
2024/02/10 08:13:04;;;;;;;35.30;33.13;;;;;;;;;;5102153;28;20479;-80
2024/02/10 08:15:32;;;;;;;32.77;30.77;;;;;;;;;;5102388;28;21014;-81
2024/02/10 08:18:08;;;;;;;32.00;30.00;;;;;;;;;;5099139;28;20495;-82
2024/02/10 08:20:35;;;;;;;33.17;31.07;;;;;;;;;;5094174;28;20452;-81
2024/02/10 08:23:02;;;;;;;33.37;31.07;;;;;;;;;;5101270;28;20445;-81
2024/02/10 08:25:30;;;;;;;32.43;30.40;;;;;;;;;;5103237;28;20510;-80
2024/02/10 08:27:59;;;;;;;32.17;29.77;;;;;;;;;;5101388;28;20538;-80
2024/02/10 08:30:27;;;;;;;31.50;29.40;;;;;;;;;;5083718;28;20934;-81
2024/02/10 08:32:58;;;;;;;30.73;28.63;;;;;;;;;;5094738;28;20452;-82
2024/02/10 08:35:27;;;;;;;30.50;28.60;;;;;;;;;;5101713;28;20959;-81
2024/02/10 08:37:54;;;;;;;31.50;29.20;;;;;;;;;;5101086;28;20458;-82
2024/02/10 08:40:21;;;;;;;30.67;28.77;;;;;;;;;;5101784;28;20457;-81
2024/02/10 08:42:52;;;;;;;31.07;28.97;;;;;;;;;;5101232;28;20457;-81
2024/02/10 08:45:19;;;;;;;32.40;30.00;;;;;;;;;;5080296;28;20456;-80
2024/02/10 08:47:47;;;;;;;30.33;28.43;;;;;;;;;;5100050;28;20481;-84
2024/02/10 08:50:15;;;;;;;30.50;28.03;;;;;;;;;;5101905;28;21022;-81
2024/02/10 08:52:48;;;;;;;30.13;28.10;;;;;;;;;;5101687;28;20534;-80
2024/02/10 08:55:15;;;;;;;28.67;26.97;;;;;;;;;;5102272;28;20444;-81
2024/02/10 08:57:43;;;;;;;30.00;27.57;;;;;;;;;;5101803;28;21142;-82
2024/02/10 09:00:15;;;;;;;28.70;27.00;;;;;;;;;;5086220;28;21043;-77
2024/02/10 09:02:45;;;;;;;28.57;26.67;;;;;;;;;;5076514;28;20458;-81
2024/02/10 09:05:12;;;;;;;28.43;26.63;;;;;;;;;;5085484;28;20962;-82
2024/02/10 09:07:39;;;;;;;27.40;25.60;;;;;;;;;;5081573;28;20521;-82
2024/02/10 09:10:07;;;;;;;27.27;25.67;;;;;;;;;;5082582;28;20508;-83
2024/02/10 09:12:34;;;;;;;29.07;27.27;;;;;;;;;;5082329;28;20467;-82
2024/02/10 09:15:02;;;;;;;25.00;23.60;;;;;;;;;;5081787;28;20523;-82
2024/02/10 09:17:31;;;;;;;25.00;23.33;;;;;;;;;;5080861;28;20478;-82
2024/02/10 09:19:58;;;;;;;26.30;24.70;;;;;;;;;;5081049;28;20503;-81
2024/02/10 09:22:25;;;;;;;24.50;23.10;;;;;;;;;;5080980;28;20442;-82
2024/02/10 09:24:54;;;;;;;24.40;23.03;;;;;;;;;;5081588;28;20461;-83
2024/02/10 09:27:21;;;;;;;25.03;23.43;;;;;;;;;;5080551;28;20489;-83
2024/02/10 09:29:48;;;;;;;22.97;21.70;;;;;;;;;;5081141;28;20469;-81
2024/02/10 09:32:15;;;;;;;23.07;21.87;;;;;;;;;;5081121;28;20453;-82
2024/02/10 09:34:46;;;;;;;22.80;21.50;;;;;;;;;;5081346;28;20442;-81
2024/02/10 09:37:14;;;;;;;23.87;22.57;;;;;;;;;;5080902;28;20446;-83
2024/02/10 09:39:41;;;;;;;21.07;19.87;;;;;;;;;;5081808;28;20453;-83
2024/02/10 09:42:10;;;;;;;21.33;19.90;;;;;;;;;;5083439;28;20473;-81
2024/02/10 09:44:37;;;;;;;21.53;20.43;;;;;;;;;;5081196;28;20917;-81
2024/02/10 09:47:07;;;;;;;22.07;21.07;;;;;;;;;;5082040;28;20479;-80
2024/02/10 09:49:35;;;;;;;22.53;21.33;;;;;;;;;;5094022;28;20456;-81
2024/02/10 09:52:03;;;;;;;22.07;20.77;;;;;;;;;;5081689;28;20857;-81
2024/02/10 09:54:30;;;;;;;22.63;21.43;;;;;;;;;;5081875;28;20445;-83
2024/02/10 09:56:58;;;;;;;23.00;21.70;;;;;;;;;;5080732;28;20446;-81
2024/02/10 09:59:26;;;;;;;27.87;25.90;;;;;;;;;;5081573;28;20915;-82
2024/02/10 10:01:56;;;;;;;26.03;24.30;;;;;;;;;;5081383;28;20456;-81
2024/02/10 10:04:24;;;;;;;20.47;19.43;;;;;;;;;;5081609;28;20489;-81
2024/02/10 10:06:51;;;;;;;20.33;19.33;;;;;;;;;;5091408;28;20484;-82
2024/02/10 10:09:21;;;;;;;21.40;20.30;;;;;;;;;;5100655;28;20457;-78
2024/02/10 10:11:48;;;;;;;22.30;21.10;;;;;;;;;;5086180;28;20944;-80
2024/02/10 10:14:17;;;;;;;21.13;20.03;;;;;;;;;;5079370;28;20515;-81
2024/02/10 10:16:56;;;;;;;23.70;22.40;;;;;;;;;;5080284;28;20539;-81
2024/02/10 10:19:23;;;;;;;20.47;19.37;;;;;;;;;;5079781;28;20485;-82
2024/02/10 10:21:53;;;;;;;20.60;19.50;;;;;;;;;;5080703;28;20503;-82
2024/02/10 10:24:22;;;;;;;21.97;20.77;;;;;;;;;;5080747;28;20445;-81
2024/02/10 10:26:50;;;;;;;19.10;18.17;;;;;;;;;;5086396;28;20472;-81
2024/02/10 10:29:19;;;;;;;20.07;19.07;;;;;;;;;;5099983;28;20484;-81
2024/02/10 10:31:48;;;;;;;22.37;21.00;;;;;;;;;;5089173;28;20448;-81
2024/02/10 10:34:16;;;;;;;20.23;19.23;;;;;;;;;;5080474;28;20438;-79
2024/02/10 10:36:44;;;;;;;19.93;18.90;;;;;;;;;;5079482;28;20433;-80
2024/02/10 10:39:11;;;;;;;23.20;21.90;;;;;;;;;;5080624;28;20500;-79
2024/02/10 10:41:42;;;;;;;18.90;18.00;;;;;;;;;;5083333;28;20437;-82
2024/02/10 10:44:10;;;;;;;20.40;19.30;;;;;;;;;;5090440;28;20459;-88
2024/02/10 10:46:37;;;;;;;18.57;17.53;;;;;;;;;;5102303;28;20905;-82
2024/02/10 10:49:04;;;;;;;18.30;17.40;;;;;;;;;;5104071;28;20542;-80
2024/02/10 10:51:32;;;;;;;18.40;17.50;;;;;;;;;;5086277;28;20488;-80
2024/02/10 10:54:01;;;;;;;17.73;16.93;;;;;;;;;;5084190;28;20944;-78
2024/02/10 10:56:31;;;;;;;18.60;17.60;;;;;;;;;;5083841;28;20434;-81
2024/02/10 10:59:02;;;;;;;17.83;17.03;;;;;;;;;;5102097;28;20548;-78
2024/02/10 11:01:29;;;;;;;17.23;16.43;;;;;;;;;;5104195;28;20448;-80
2024/02/10 11:03:59;;;;;;;20.53;19.43;;;;;;;;;;5093607;28;20468;-79
2024/02/10 11:06:29;;;;;;;18.03;16.80;;;;;;;;;;5082717;28;20810;-79
2024/02/10 11:08:58;;;;;;;17.67;16.87;;;;;;;;;;5082912;28;21168;-80
2024/02/10 11:11:25;;;;;;;22.33;21.23;;;;;;;;;;5083978;28;20441;-80
2024/02/10 11:13:52;;;;;;;18.43;17.53;;;;;;;;;;5098575;28;20432;-81
2024/02/10 11:16:33;;;;;;;17.43;16.57;;;;;;;;;;5084621;28;20472;-80
2024/02/10 11:19:01;;;;;;;16.60;15.90;;;;;;;;;;5098178;28;20480;-82
2024/02/10 11:21:30;;;;;;;17.30;16.50;;;;;;;;;;5102336;28;20844;-81
2024/02/10 11:24:00;;;;;;;17.70;16.90;;;;;;;;;;5085647;28;20817;-82
2024/02/10 11:26:28;;;;;;;17.33;16.53;;;;;;;;;;5083979;28;20484;-82
2024/02/10 11:28:59;;;;;;;16.83;16.03;;;;;;;;;;5082846;28;20975;-81
2024/02/10 11:31:28;;;;;;;17.37;16.63;;;;;;;;;;5083811;28;20446;-82
2024/02/10 11:34:01;;;;;;;17.33;16.43;;;;;;;;;;5082757;28;20446;-81
2024/02/10 11:36:28;;;;;;;18.10;17.30;;;;;;;;;;5101255;28;21063;-81
2024/02/10 11:38:55;;;;;;;17.90;17.10;;;;;;;;;;5104893;28;20465;-82
2024/02/10 11:41:22;;;;;;;18.10;17.30;;;;;;;;;;5101460;28;20452;-81
2024/02/10 11:43:50;;;;;;;18.37;17.57;;;;;;;;;;5083294;28;20566;-81
2024/02/10 11:46:17;;;;;;;19.83;18.80;;;;;;;;;;5083129;28;20480;-80
2024/02/10 11:48:45;;;;;;;21.50;20.30;;;;;;;;;;5091651;28;20486;-80
2024/02/10 11:51:12;;;;;;;23.50;22.20;;;;;;;;;;5082712;28;20525;-81
2024/02/10 11:53:44;;;;;;;21.50;20.40;;;;;;;;;;5083101;28;20551;-80
2024/02/10 11:56:11;;;;;;;20.77;19.67;;;;;;;;;;5083820;28;20474;-81
2024/02/10 11:58:38;;;;;;;19.77;18.87;;;;;;;;;;5094605;28;20501;-81
2024/02/10 12:01:06;;;;;;;31.37;28.97;;;;;;;;;;5083489;28;20786;-79
2024/02/10 12:03:32;;;;;;;30.07;28.10;;;;;;;;;;5082104;28;20517;-81
2024/02/10 12:06:02;;;;;;;19.73;18.83;;;;;;;;;;5082403;28;20446;-81
2024/02/10 12:08:30;;;;;;;17.93;17.13;;;;;;;;;;5092075;28;20481;-78
2024/02/10 12:10:57;;;;;;;18.40;17.60;;;;;;;;;;5100750;28;20463;-80
2024/02/10 12:13:25;;;;;;;19.40;18.50;;;;;;;;;;5083531;28;20454;-82
2024/02/10 12:15:52;;;;;;;16.10;15.40;;;;;;;;;;5083115;28;20461;-81
2024/02/10 12:18:21;;;;;;;17.70;17.00;;;;;;;;;;5082388;28;20470;-82
2024/02/10 12:20:51;;;;;;;16.90;16.20;;;;;;;;;;5083004;28;20453;-82
2024/02/10 12:23:20;;;;;;;17.20;16.50;;;;;;;;;;5082755;28;20453;-81
2024/02/10 12:25:47;;;;;;;17.23;16.53;;;;;;;;;;5081721;28;20453;-80
2024/02/10 12:28:14;;;;;;;16.80;16.10;;;;;;;;;;5082453;28;20485;-79
2024/02/10 12:30:41;;;;;;;16.70;16.00;;;;;;;;;;5081595;28;20528;-80
2024/02/10 12:33:09;;;;;;;17.37;16.67;;;;;;;;;;5082693;28;20479;-79
2024/02/10 12:35:38;;;;;;;17.43;16.63;;;;;;;;;;5080416;28;20469;-79
2024/02/10 12:38:06;;;;;;;16.60;15.80;;;;;;;;;;5080862;28;20462;-79
2024/02/10 12:40:36;;;;;;;16.70;16.00;;;;;;;;;;5080745;28;20438;-79
2024/02/10 12:43:04;;;;;;;16.67;15.97;;;;;;;;;;5081275;28;20446;-80
2024/02/10 12:45:35;;;;;;;16.57;15.87;;;;;;;;;;5080344;28;20488;-80
2024/02/10 12:48:05;;;;;;;16.63;15.90;;;;;;;;;;5079725;28;20485;-79
2024/02/10 12:50:33;;;;;;;16.50;15.80;;;;;;;;;;5081057;28;20760;-79
2024/02/10 12:53:00;;;;;;;16.17;15.47;;;;;;;;;;5097533;28;21071;-79
2024/02/10 12:55:27;;;;;;;16.40;15.60;;;;;;;;;;5093965;28;20495;-81
2024/02/10 12:57:56;;;;;;;15.90;15.20;;;;;;;;;;5082168;28;20556;-81
2024/02/10 13:00:24;;;;;;;16.63;15.93;;;;;;;;;;5081925;28;20468;-81
2024/02/10 13:02:51;;;;;;;16.60;15.90;;;;;;;;;;5088614;28;20513;-81
2024/02/10 13:05:20;;;;;;;16.83;15.93;;;;;;;;;;5090559;28;20970;-79
2024/02/10 13:07:47;;;;;;;17.00;16.20;;;;;;;;;;5081843;28;20926;-79
2024/02/10 13:10:20;;;;;;;16.70;16.00;;;;;;;;;;5082084;28;20438;-81
2024/02/10 13:12:51;;;;;;;16.30;15.60;;;;;;;;;;5082080;28;20453;-80
2024/02/10 13:15:19;;;;;;;19.13;18.23;;;;;;;;;;5081836;28;20536;-79
2024/02/10 13:17:47;;;;;;;16.97;16.23;;;;;;;;;;5082996;28;20485;-81
2024/02/10 13:20:17;;;;;;;17.37;16.50;;;;;;;;;;5102425;28;20440;-80
2024/02/10 13:22:45;;;;;;;17.07;16.27;;;;;;;;;;5102817;28;20461;-80
2024/02/10 13:25:12;;;;;;;16.50;15.80;;;;;;;;;;5101873;28;20455;-80
2024/02/10 13:27:39;;;;;;;17.07;16.33;;;;;;;;;;5101073;28;20491;-79
2024/02/10 13:30:08;;;;;;;16.53;15.83;;;;;;;;;;5086780;28;20453;-79
2024/02/10 13:32:37;;;;;;;17.00;16.30;;;;;;;;;;5082309;28;20438;-81
2024/02/10 13:35:04;;;;;;;17.17;16.30;;;;;;;;;;5102229;28;20445;-79
2024/02/10 14:04:56;;;;;;;18.30;17.40;;;;;;;;;;5080755;28;20530;-81
2024/02/10 14:10:17;;;;;;;17.83;17.03;;;;;;;;;;5082336;28;20448;-81
2024/02/10 14:12:49;;;;;;;17.63;16.83;;;;;;;;;;5081992;28;20501;-80
2024/02/10 14:15:24;;;;;;;17.20;16.43;;;;;;;;;;5083632;28;20492;-81
2024/02/10 14:17:59;;;;;;;17.50;16.70;;;;;;;;;;5084401;28;20487;-82
2024/02/10 14:20:29;;;;;;;17.17;16.37;;;;;;;;;;5085521;28;20437;-81
2024/02/10 14:22:58;;;;;;;17.27;16.57;;;;;;;;;;5085498;28;20927;-80
2024/02/10 14:25:27;;;;;;;18.03;17.23;;;;;;;;;;5090887;28;20475;-82
2024/02/10 14:27:56;;;;;;;17.20;16.50;;;;;;;;;;5091740;28;20468;-82
2024/02/10 14:30:35;;;;;;;17.20;16.40;;;;;;;;;;5080331;28;20466;-79
2024/02/10 14:33:02;;;;;;;17.57;16.77;;;;;;;;;;5083635;28;20923;-85
2024/02/10 14:35:47;;;;;;;18.17;17.37;;;;;;;;;;5120161;28;20439;-89
2024/02/10 14:38:24;;;;;;;19.10;18.00;;;;;;;;;;5124429;28;20456;-87
2024/02/10 14:40:52;;;;;;;17.90;17.07;;;;;;;;;;5127153;28;20527;-88
2024/02/10 14:43:19;;;;;;;17.67;16.80;;;;;;;;;;5109739;28;20450;-87
2024/02/10 14:45:46;;;;;;;17.53;16.73;;;;;;;;;;5083798;28;20492;-88
2024/02/10 14:48:15;;;;;;;18.87;17.90;;;;;;;;;;5087564;28;20476;-86
2024/02/10 14:50:44;;;;;;;18.20;17.40;;;;;;;;;;5093756;28;20533;-88
2024/02/10 14:53:11;;;;;;;17.37;16.50;;;;;;;;;;5094183;28;20471;-86